Time;durP1;ratioP1;P1;durP2;ratioP2;P2;SDS_P1;SDS_P2;PMS_P1;PMS_P2;Temp;Humidity;BMP_temperature;BMP_pressure;BME280_temperature;BME280_humidity;BME280_pressure;Samples;Min_cycle;Max_cycle;Signal;HPM_P1;HPM_P2
2022/01/14 00:01:36;;;;;;;39.17;18.53;;;;;;;;;;5104874;28;20636;-70
2022/01/14 00:04:01;;;;;;;57.57;18.63;;;;;;;;;;5103207;28;20186;-70
2022/01/14 00:06:26;;;;;;;47.53;18.70;;;;;;;;;;5103111;28;20203;-70
2022/01/14 00:08:54;;;;;;;61.23;21.00;;;;;;;;;;5104514;28;20183;-71
2022/01/14 00:11:19;;;;;;;62.90;18.93;;;;;;;;;;5102916;28;20187;-71
2022/01/14 00:13:52;;;;;;;82.23;20.80;;;;;;;;;;5083902;28;20191;-71
2022/01/14 00:16:18;;;;;;;42.30;17.47;;;;;;;;;;5089948;28;20206;-69
2022/01/14 00:18:44;;;;;;;40.07;17.47;;;;;;;;;;5103531;28;21418;-69
2022/01/14 00:21:09;;;;;;;43.93;18.20;;;;;;;;;;5088299;28;20666;-69
2022/01/14 00:23:38;;;;;;;52.47;19.03;;;;;;;;;;5104495;28;20172;-69
2022/01/14 00:31:42;;;;;;;56.77;17.97;;;;;;;;;;5084672;28;20198;-69
2022/01/14 00:34:08;;;;;;;91.83;20.23;;;;;;;;;;5086052;28;21551;-69
2022/01/14 00:36:33;;;;;;;59.97;20.53;;;;;;;;;;5087902;28;20465;-69
2022/01/14 00:38:58;;;;;;;79.80;19.73;;;;;;;;;;5089097;28;20177;-70
2022/01/14 00:41:23;;;;;;;77.77;20.33;;;;;;;;;;5091451;28;20367;-69
2022/01/14 00:43:52;;;;;;;35.33;18.47;;;;;;;;;;5089785;28;20171;-69
2022/01/14 00:46:17;;;;;;;54.00;18.73;;;;;;;;;;5101426;22;20283;-70
2022/01/14 00:48:42;;;;;;;30.60;17.20;;;;;;;;;;5087622;28;20190;-71
2022/01/14 00:51:08;;;;;;;65.43;20.70;;;;;;;;;;5088326;27;20206;-70
2022/01/14 00:53:33;;;;;;;81.37;19.47;;;;;;;;;;5086288;27;20190;-70
2022/01/14 00:56:07;;;;;;;53.57;17.67;;;;;;;;;;5094004;28;20203;-70
2022/01/14 01:01:16;;;;;;;43.33;18.60;;;;;;;;;;5086325;28;20206;-69
2022/01/14 01:03:41;;;;;;;69.97;19.10;;;;;;;;;;5096780;28;20854;-71
2022/01/14 01:06:07;;;;;;;54.13;17.20;;;;;;;;;;5085777;28;20296;-70
2022/01/14 01:08:34;;;;;;;56.53;18.97;;;;;;;;;;5091135;28;20180;-70
2022/01/14 01:10:59;;;;;;;52.27;17.77;;;;;;;;;;5087285;28;20184;-70
2022/01/14 01:13:29;;;;;;;62.97;19.40;;;;;;;;;;5087622;28;20645;-69
2022/01/14 01:15:55;;;;;;;76.27;18.13;;;;;;;;;;5069775;28;20203;-70
2022/01/14 01:18:20;;;;;;;65.37;16.63;;;;;;;;;;5091711;28;20723;-70
2022/01/14 01:20:46;;;;;;;54.93;15.93;;;;;;;;;;5086321;28;20259;-70
2022/01/14 01:23:11;;;;;;;76.53;17.53;;;;;;;;;;5086408;28;20188;-70
2022/01/14 01:25:45;;;;;;;73.80;17.33;;;;;;;;;;5069055;28;20208;-71
2022/01/14 01:28:10;;;;;;;37.20;16.73;;;;;;;;;;5066790;28;20538;-71
2022/01/14 01:33:01;;;;;;;96.83;17.97;;;;;;;;;;5087070;28;20179;-70
2022/01/14 01:35:27;;;;;;;80.73;18.23;;;;;;;;;;5085618;28;20249;-70
2022/01/14 01:37:52;;;;;;;79.20;21.00;;;;;;;;;;5085624;28;20252;-70
2022/01/14 01:40:19;;;;;;;99.73;19.33;;;;;;;;;;5085894;28;20659;-70
2022/01/14 01:42:45;;;;;;;53.47;16.43;;;;;;;;;;5085595;28;20315;-69
2022/01/14 01:45:12;;;;;;;57.40;17.00;;;;;;;;;;5087795;28;20218;-71
2022/01/14 01:47:38;;;;;;;49.57;18.30;;;;;;;;;;5093020;28;20285;-70
2022/01/14 01:50:08;;;;;;;77.33;21.60;;;;;;;;;;5089347;28;20620;-70
2022/01/14 01:52:33;;;;;;;47.17;17.70;;;;;;;;;;5067866;28;20282;-70
2022/01/14 01:54:59;;;;;;;51.27;17.23;;;;;;;;;;5085567;28;20215;-69
2022/01/14 01:57:24;;;;;;;44.80;18.07;;;;;;;;;;5084051;28;20230;-70
2022/01/14 01:59:49;;;;;;;55.17;19.30;;;;;;;;;;5085544;28;20187;-69
2022/01/14 02:02:14;;;;;;;77.63;20.23;;;;;;;;;;5087765;28;20192;-70
2022/01/14 02:04:39;;;;;;;73.97;20.97;;;;;;;;;;5094149;28;20168;-70
2022/01/14 02:07:05;;;;;;;46.27;18.90;;;;;;;;;;5086245;28;20574;-70
2022/01/14 02:09:31;;;;;;;49.83;19.17;;;;;;;;;;5086041;28;20179;-69
2022/01/14 02:11:57;;;;;;;51.17;21.07;;;;;;;;;;5086280;28;20232;-69
2022/01/14 02:22:09;;;;;;;40.00;19.30;;;;;;;;;;5085927;28;20191;-69
2022/01/14 02:22:44;;;;;;;67.73;22.30;;;;;;;;;;5084814;28;21861;-69
2022/01/14 02:25:11;;;;;;;49.60;20.93;;;;;;;;;;5085210;28;20194;-69
2022/01/14 02:27:36;;;;;;;58.13;21.93;;;;;;;;;;5065409;28;20473;-69
2022/01/14 02:30:02;;;;;;;59.77;22.53;;;;;;;;;;5086560;28;20188;-68
2022/01/14 02:32:27;;;;;;;48.20;21.53;;;;;;;;;;5083964;28;20191;-69
2022/01/14 02:34:52;;;;;;;56.00;21.57;;;;;;;;;;5103259;28;20198;-69
2022/01/14 02:37:20;;;;;;;56.43;21.37;;;;;;;;;;5098605;28;20621;-69
2022/01/14 02:39:45;;;;;;;52.97;20.60;;;;;;;;;;5103417;28;20228;-69
2022/01/14 02:42:10;;;;;;;94.50;23.77;;;;;;;;;;5102810;28;20176;-70
2022/01/14 02:44:36;;;;;;;91.20;22.30;;;;;;;;;;5103825;28;20172;-69
2022/01/14 02:47:05;;;;;;;72.17;24.47;;;;;;;;;;5096902;28;20180;-70
2022/01/14 02:49:33;;;;;;;89.00;24.03;;;;;;;;;;5093082;28;20237;-68
2022/01/14 02:51:59;;;;;;;72.67;22.13;;;;;;;;;;5085378;28;20183;-69
2022/01/14 02:54:39;;;;;;;76.70;22.77;;;;;;;;;;5086160;28;20663;-68
2022/01/14 02:57:05;;;;;;;109.57;24.20;;;;;;;;;;5085445;28;20204;-69
2022/01/14 02:59:31;;;;;;;100.77;23.37;;;;;;;;;;5084999;28;20183;-69
2022/01/14 03:01:56;;;;;;;50.50;19.70;;;;;;;;;;5086072;28;20184;-69
2022/01/14 03:04:22;;;;;;;94.63;22.17;;;;;;;;;;5094762;28;20660;-69
2022/01/14 03:06:48;;;;;;;88.47;21.17;;;;;;;;;;5069909;28;20205;-69
2022/01/14 03:09:13;;;;;;;74.43;20.67;;;;;;;;;;5083322;28;20670;-69
2022/01/14 03:11:44;;;;;;;68.40;21.10;;;;;;;;;;5099630;28;20286;-69
2022/01/14 03:14:09;;;;;;;102.57;21.60;;;;;;;;;;5090137;28;20179;-69
2022/01/14 03:16:39;;;;;;;67.53;20.43;;;;;;;;;;5091137;28;20248;-69
2022/01/14 03:19:14;;;;;;;75.50;19.53;;;;;;;;;;5066152;28;20183;-69
2022/01/14 03:21:41;;;;;;;61.63;18.60;;;;;;;;;;5086060;28;20232;-69
2022/01/14 03:26:41;;;;;;;75.93;20.17;;;;;;;;;;5085697;28;20690;-68
2022/01/14 03:29:07;;;;;;;64.70;18.47;;;;;;;;;;5084246;28;21880;-69
2022/01/14 03:31:32;;;;;;;41.63;17.40;;;;;;;;;;5086200;28;20803;-69
2022/01/14 03:33:57;;;;;;;110.07;19.63;;;;;;;;;;5085441;28;20183;-69
2022/01/14 03:36:23;;;;;;;94.80;19.47;;;;;;;;;;5084844;28;20226;-69
2022/01/14 03:38:48;;;;;;;48.53;17.80;;;;;;;;;;5083517;28;20204;-69
2022/01/14 03:41:13;;;;;;;65.80;20.83;;;;;;;;;;5084240;28;20172;-68
2022/01/14 03:43:40;;;;;;;75.17;20.20;;;;;;;;;;5082771;28;20259;-69
2022/01/14 03:46:05;;;;;;;65.20;19.80;;;;;;;;;;5087861;28;20226;-69
2022/01/14 03:48:31;;;;;;;75.00;20.93;;;;;;;;;;5071344;28;20187;-69
2022/01/14 03:50:56;;;;;;;53.33;20.53;;;;;;;;;;5085046;28;20192;-69
2022/01/14 03:53:22;;;;;;;106.73;21.47;;;;;;;;;;5068081;28;20194;-69
2022/01/14 03:55:47;;;;;;;84.10;20.10;;;;;;;;;;5072634;28;20302;-69
2022/01/14 03:58:12;;;;;;;82.67;20.40;;;;;;;;;;5083962;28;20226;-69
2022/01/14 04:00:37;;;;;;;54.17;19.57;;;;;;;;;;5069369;28;20312;-69
2022/01/14 04:03:03;;;;;;;62.77;20.33;;;;;;;;;;5071443;28;20210;-70
2022/01/14 04:05:29;;;;;;;91.07;22.43;;;;;;;;;;5066378;28;20292;-69
2022/01/14 04:07:54;;;;;;;85.97;24.33;;;;;;;;;;5087627;28;20562;-69
2022/01/14 04:10:20;;;;;;;74.33;21.67;;;;;;;;;;5087983;28;20637;-69
2022/01/14 04:12:55;;;;;;;69.43;19.37;;;;;;;;;;5088073;28;20199;-69
2022/01/14 04:15:44;;;;;;;105.27;21.57;;;;;;;;;;5069419;28;20210;-69
2022/01/14 04:18:13;;;;;;;56.53;18.33;;;;;;;;;;5090905;28;20228;-70
2022/01/14 04:20:38;;;;;;;70.63;19.60;;;;;;;;;;5087005;28;20814;-69
2022/01/14 04:23:06;;;;;;;69.03;19.17;;;;;;;;;;5088325;28;20183;-69
2022/01/14 04:25:32;;;;;;;76.83;21.53;;;;;;;;;;5087884;28;20256;-69
2022/01/14 04:27:58;;;;;;;46.57;17.97;;;;;;;;;;5061213;28;20596;-69
2022/01/14 04:30:24;;;;;;;72.00;19.77;;;;;;;;;;5087056;28;20224;-71
2022/01/14 04:32:49;;;;;;;112.07;21.47;;;;;;;;;;5071435;28;20633;-68
2022/01/14 04:35:15;;;;;;;57.93;18.40;;;;;;;;;;5071420;28;20214;-70
2022/01/14 04:37:40;;;;;;;98.67;21.50;;;;;;;;;;5090645;28;20243;-71
2022/01/14 04:40:06;;;;;;;86.87;19.47;;;;;;;;;;5090091;28;21828;-69
2022/01/14 04:42:32;;;;;;;53.83;18.53;;;;;;;;;;5082068;28;20271;-68
2022/01/14 04:44:57;;;;;;;66.63;18.90;;;;;;;;;;5087842;28;20215;-71
2022/01/14 04:47:44;;;;;;;65.77;20.33;;;;;;;;;;5089405;28;22255;-69
2022/01/14 04:50:09;;;;;;;76.23;20.33;;;;;;;;;;5086640;28;20191;-67
2022/01/14 04:52:35;;;;;;;65.80;19.27;;;;;;;;;;5087646;28;20612;-71
2022/01/14 04:55:00;;;;;;;41.27;17.70;;;;;;;;;;5087523;28;20214;-70
2022/01/14 04:57:25;;;;;;;98.17;20.40;;;;;;;;;;5086903;28;20718;-70
2022/01/14 04:59:50;;;;;;;113.97;19.93;;;;;;;;;;5089613;28;20270;-71
2022/01/14 05:02:15;;;;;;;62.33;17.40;;;;;;;;;;5089250;28;20179;-71
2022/01/14 05:04:42;;;;;;;72.20;18.83;;;;;;;;;;5090070;28;20195;-71
2022/01/14 05:07:12;;;;;;;76.17;18.53;;;;;;;;;;5089463;28;20743;-71
2022/01/14 05:09:42;;;;;;;84.03;19.37;;;;;;;;;;5074442;28;20969;-71
2022/01/14 05:12:10;;;;;;;130.07;19.80;;;;;;;;;;5087288;28;20925;-71
2022/01/14 05:14:35;;;;;;;58.37;15.70;;;;;;;;;;5088037;28;20729;-69
2022/01/14 05:17:01;;;;;;;41.93;14.57;;;;;;;;;;5089927;28;20191;-70
2022/01/14 05:19:26;;;;;;;66.60;16.87;;;;;;;;;;5070591;28;20211;-71
2022/01/14 05:21:52;;;;;;;78.60;18.30;;;;;;;;;;5071126;28;20630;-71
2022/01/14 05:24:17;;;;;;;79.07;16.03;;;;;;;;;;5070344;28;20183;-71
2022/01/14 05:26:42;;;;;;;77.63;16.30;;;;;;;;;;5069554;28;20199;-71
2022/01/14 05:29:07;;;;;;;44.57;15.43;;;;;;;;;;5068856;28;20755;-70
2022/01/14 05:31:43;;;;;;;72.07;16.17;;;;;;;;;;5070210;28;20188;-71
2022/01/14 05:34:08;;;;;;;69.73;15.30;;;;;;;;;;5087896;28;20178;-71
2022/01/14 05:36:33;;;;;;;110.20;17.70;;;;;;;;;;5086154;28;20215;-71
2022/01/14 05:38:58;;;;;;;101.43;18.20;;;;;;;;;;5087456;28;20294;-71
2022/01/14 05:41:23;;;;;;;63.43;16.60;;;;;;;;;;5086665;28;20620;-71
2022/01/14 05:43:49;;;;;;;57.00;16.13;;;;;;;;;;5067473;28;20270;-71
2022/01/14 05:46:14;;;;;;;76.57;17.00;;;;;;;;;;5088182;28;20218;-71
2022/01/14 05:48:39;;;;;;;70.40;15.10;;;;;;;;;;5095528;28;20898;-71
2022/01/14 05:51:04;;;;;;;51.57;13.60;;;;;;;;;;5084851;28;20207;-71
2022/01/14 05:53:29;;;;;;;83.57;16.00;;;;;;;;;;5088969;28;20188;-70
2022/01/14 05:55:54;;;;;;;85.63;16.67;;;;;;;;;;5111210;28;20238;-69
2022/01/14 05:58:20;;;;;;;80.47;15.40;;;;;;;;;;5092945;28;20196;-70
2022/01/14 06:00:45;;;;;;;54.97;14.30;;;;;;;;;;5086429;28;20210;-70
2022/01/14 06:03:10;;;;;;;77.57;14.83;;;;;;;;;;5092670;28;20180;-70
2022/01/14 06:05:35;;;;;;;42.77;13.30;;;;;;;;;;5068977;28;20864;-71
2022/01/14 06:08:00;;;;;;;26.03;12.60;;;;;;;;;;5090934;28;20179;-70
2022/01/14 06:10:26;;;;;;;78.90;14.40;;;;;;;;;;5087667;28;20175;-70
2022/01/14 06:12:51;;;;;;;71.53;15.23;;;;;;;;;;5085507;28;20195;-71
2022/01/14 06:15:17;;;;;;;83.17;17.67;;;;;;;;;;5086869;28;20230;-71
2022/01/14 06:17:42;;;;;;;57.93;13.77;;;;;;;;;;5088845;28;20207;-70
2022/01/14 06:20:07;;;;;;;56.17;14.23;;;;;;;;;;5086642;28;20349;-70
2022/01/14 06:22:35;;;;;;;80.00;15.37;;;;;;;;;;5084316;28;20176;-68
2022/01/14 06:25:00;;;;;;;106.13;16.00;;;;;;;;;;5087334;28;20556;-71
2022/01/14 06:27:26;;;;;;;82.03;15.10;;;;;;;;;;5082781;28;20195;-71
2022/01/14 06:29:51;;;;;;;95.63;16.60;;;;;;;;;;5086362;28;20617;-71
2022/01/14 06:32:16;;;;;;;70.13;15.87;;;;;;;;;;5087367;28;20168;-70
2022/01/14 06:34:41;;;;;;;54.50;14.33;;;;;;;;;;5086304;28;20211;-69
2022/01/14 06:37:06;;;;;;;37.40;12.90;;;;;;;;;;5083686;28;21516;-69
2022/01/14 06:39:32;;;;;;;73.53;14.70;;;;;;;;;;5085521;28;20697;-69
2022/01/14 06:41:57;;;;;;;41.27;12.70;;;;;;;;;;5085657;28;20627;-70
2022/01/14 06:44:22;;;;;;;34.97;12.80;;;;;;;;;;5069659;28;20179;-69
2022/01/14 06:46:47;;;;;;;65.40;14.63;;;;;;;;;;5097911;22;20229;-71
2022/01/14 06:49:12;;;;;;;62.40;14.23;;;;;;;;;;5088502;27;20177;-71
2022/01/14 06:51:38;;;;;;;86.87;15.97;;;;;;;;;;5071026;28;20225;-71
2022/01/14 06:54:03;;;;;;;77.07;16.00;;;;;;;;;;5087354;28;20211;-72
2022/01/14 06:56:28;;;;;;;67.70;15.47;;;;;;;;;;5087651;28;20663;-69
2022/01/14 06:58:53;;;;;;;56.67;13.83;;;;;;;;;;5085715;28;20203;-69
2022/01/14 07:01:18;;;;;;;63.67;14.53;;;;;;;;;;5084072;28;21511;-69
2022/01/14 07:03:44;;;;;;;41.90;13.93;;;;;;;;;;5087535;28;20640;-70
2022/01/14 07:06:10;;;;;;;31.90;13.20;;;;;;;;;;5086041;28;20206;-69
2022/01/14 07:08:35;;;;;;;50.53;12.97;;;;;;;;;;5090268;28;20207;-70
2022/01/14 07:11:00;;;;;;;33.57;12.87;;;;;;;;;;5085932;28;20572;-69
2022/01/14 07:13:26;;;;;;;92.37;14.97;;;;;;;;;;5085946;28;20281;-69
2022/01/14 07:15:51;;;;;;;42.13;14.37;;;;;;;;;;5086237;28;20199;-70
2022/01/14 07:18:16;;;;;;;46.20;13.73;;;;;;;;;;5089329;28;20207;-72
2022/01/14 07:20:41;;;;;;;45.03;13.43;;;;;;;;;;5087525;28;20215;-70
2022/01/14 07:23:06;;;;;;;106.47;16.13;;;;;;;;;;5087408;28;20300;-70
2022/01/14 07:25:32;;;;;;;45.73;13.30;;;;;;;;;;5085761;28;20204;-70
2022/01/14 07:27:57;;;;;;;38.47;14.40;;;;;;;;;;5087138;28;20664;-69
2022/01/14 07:30:23;;;;;;;61.13;14.17;;;;;;;;;;5084584;28;20595;-69
2022/01/14 07:32:48;;;;;;;44.00;14.07;;;;;;;;;;5084731;28;20671;-69
2022/01/14 07:35:13;;;;;;;72.07;16.17;;;;;;;;;;5085164;28;20199;-69
2022/01/14 07:37:38;;;;;;;49.13;16.53;;;;;;;;;;5085591;28;20658;-69
2022/01/14 07:40:05;;;;;;;33.77;13.00;;;;;;;;;;5085050;28;20184;-69
2022/01/14 07:42:30;;;;;;;62.87;15.47;;;;;;;;;;5073047;28;20211;-70
2022/01/14 07:44:55;;;;;;;64.67;13.70;;;;;;;;;;5095305;28;21399;-70
2022/01/14 07:47:20;;;;;;;60.27;14.40;;;;;;;;;;5107313;28;20626;-70
2022/01/14 07:49:46;;;;;;;77.33;14.70;;;;;;;;;;5093452;28;20191;-70
2022/01/14 07:52:12;;;;;;;36.37;13.07;;;;;;;;;;5072404;28;20175;-70
2022/01/14 07:54:37;;;;;;;59.13;13.80;;;;;;;;;;5088126;28;20175;-72
2022/01/14 07:57:03;;;;;;;38.13;13.77;;;;;;;;;;5089453;28;20208;-69
2022/01/14 07:59:30;;;;;;;53.30;13.23;;;;;;;;;;5089976;28;20202;-70
2022/01/14 08:01:55;;;;;;;37.73;12.97;;;;;;;;;;5072225;28;20228;-70
2022/01/14 08:04:21;;;;;;;46.00;14.50;;;;;;;;;;5094937;28;20187;-70
2022/01/14 08:06:49;;;;;;;53.20;14.43;;;;;;;;;;5090297;28;20198;-70
2022/01/14 08:09:16;;;;;;;39.17;14.03;;;;;;;;;;5080948;28;20186;-70
2022/01/14 08:11:41;;;;;;;47.43;14.03;;;;;;;;;;5087786;28;20184;-71
2022/01/14 08:14:07;;;;;;;26.43;12.87;;;;;;;;;;5088321;28;20179;-70
2022/01/14 08:16:32;;;;;;;46.10;14.20;;;;;;;;;;5091315;28;20424;-71
2022/01/14 08:18:57;;;;;;;36.83;13.27;;;;;;;;;;5091300;28;20663;-70
2022/01/14 08:21:22;;;;;;;47.80;14.60;;;;;;;;;;5090627;28;20176;-70
2022/01/14 08:23:47;;;;;;;35.37;15.10;;;;;;;;;;5086797;28;20528;-70
2022/01/14 08:26:13;;;;;;;28.47;13.87;;;;;;;;;;5090531;28;20208;-70
2022/01/14 08:28:38;;;;;;;33.23;14.73;;;;;;;;;;5086594;28;20211;-70
2022/01/14 08:31:03;;;;;;;28.40;13.53;;;;;;;;;;5092448;28;20191;-70
2022/01/14 08:33:29;;;;;;;27.27;13.73;;;;;;;;;;5089474;28;20189;-70
2022/01/14 08:35:54;;;;;;;28.40;13.23;;;;;;;;;;5090757;28;20187;-70
2022/01/14 08:38:20;;;;;;;32.43;14.70;;;;;;;;;;5089372;28;20273;-70
2022/01/14 08:40:45;;;;;;;34.43;14.90;;;;;;;;;;5072951;28;20172;-70
2022/01/14 08:43:10;;;;;;;28.03;15.23;;;;;;;;;;5089286;28;20171;-70
2022/01/14 08:45:35;;;;;;;24.00;14.63;;;;;;;;;;5091060;28;20207;-70
2022/01/14 08:48:01;;;;;;;26.70;15.03;;;;;;;;;;5094390;28;20179;-70
2022/01/14 08:50:27;;;;;;;28.13;14.97;;;;;;;;;;5091065;28;20188;-70
2022/01/14 08:52:53;;;;;;;29.47;15.17;;;;;;;;;;5088590;28;20244;-70
2022/01/14 08:55:19;;;;;;;21.57;14.10;;;;;;;;;;5091673;28;20195;-70
2022/01/14 08:57:44;;;;;;;21.80;14.93;;;;;;;;;;5091564;28;20196;-70
2022/01/14 09:00:10;;;;;;;25.10;15.50;;;;;;;;;;5093257;28;20598;-70
2022/01/14 09:02:35;;;;;;;25.13;15.20;;;;;;;;;;5079311;28;20176;-70
2022/01/14 09:05:00;;;;;;;22.60;15.60;;;;;;;;;;5074200;28;20175;-70
2022/01/14 09:07:28;;;;;;;22.07;15.07;;;;;;;;;;5090830;28;20708;-70
2022/01/14 09:09:54;;;;;;;26.63;17.27;;;;;;;;;;5091899;28;20552;-70
2022/01/14 09:12:19;;;;;;;23.97;15.40;;;;;;;;;;5093931;28;20179;-69
2022/01/14 09:14:45;;;;;;;22.60;16.10;;;;;;;;;;5091606;28;20225;-69
2022/01/14 09:17:10;;;;;;;23.10;15.20;;;;;;;;;;5091761;28;20199;-70
2022/01/14 09:19:36;;;;;;;22.00;15.10;;;;;;;;;;5091323;28;20180;-73
2022/01/14 09:22:01;;;;;;;22.77;15.63;;;;;;;;;;5093915;28;20191;-71
2022/01/14 09:24:26;;;;;;;23.87;16.97;;;;;;;;;;5090075;28;20179;-70
2022/01/14 09:26:51;;;;;;;23.20;15.60;;;;;;;;;;5091183;28;20210;-69
2022/01/14 09:29:17;;;;;;;29.07;16.30;;;;;;;;;;5095625;28;20645;-72
2022/01/14 09:31:42;;;;;;;28.70;17.97;;;;;;;;;;5090954;28;20186;-72
2022/01/14 09:34:07;;;;;;;24.90;16.67;;;;;;;;;;5087263;28;20190;-69
2022/01/14 09:36:32;;;;;;;25.70;17.33;;;;;;;;;;5093074;28;20222;-70
2022/01/14 09:38:58;;;;;;;29.27;17.67;;;;;;;;;;5088380;28;20199;-72
2022/01/14 09:41:23;;;;;;;24.40;16.97;;;;;;;;;;5068660;28;21629;-71
2022/01/14 09:43:48;;;;;;;25.50;16.43;;;;;;;;;;5089387;28;20183;-70
2022/01/14 09:46:14;;;;;;;28.73;17.50;;;;;;;;;;5090828;28;20214;-70
2022/01/14 09:48:39;;;;;;;27.53;17.20;;;;;;;;;;5095756;28;20179;-70
2022/01/14 09:51:05;;;;;;;28.03;19.53;;;;;;;;;;5093797;28;20617;-69
2022/01/14 09:53:30;;;;;;;27.90;17.87;;;;;;;;;;5089396;28;20894;-70
2022/01/14 09:55:56;;;;;;;24.13;17.33;;;;;;;;;;5089637;28;20803;-69
2022/01/14 09:58:26;;;;;;;24.10;17.60;;;;;;;;;;5089147;28;20496;-69
2022/01/14 10:01:05;;;;;;;26.10;16.57;;;;;;;;;;5090602;28;20716;-69
2022/01/14 10:03:31;;;;;;;29.10;17.23;;;;;;;;;;5096807;28;20168;-72
2022/01/14 10:05:57;;;;;;;27.10;17.50;;;;;;;;;;5073328;28;20199;-70
2022/01/14 10:08:26;;;;;;;24.67;16.70;;;;;;;;;;5093141;28;20175;-71
2022/01/14 10:10:55;;;;;;;24.23;15.97;;;;;;;;;;5088481;28;20606;-71
2022/01/14 10:13:24;;;;;;;26.67;16.83;;;;;;;;;;5087789;28;20598;-71
2022/01/14 10:15:51;;;;;;;24.00;16.37;;;;;;;;;;5072364;28;20199;-70
2022/01/14 10:18:17;;;;;;;26.43;16.53;;;;;;;;;;5092177;28;20285;-70
2022/01/14 10:20:43;;;;;;;22.17;15.83;;;;;;;;;;5090873;28;20207;-70
2022/01/14 10:23:08;;;;;;;24.13;15.90;;;;;;;;;;5089497;28;20634;-71
2022/01/14 10:25:33;;;;;;;20.10;15.50;;;;;;;;;;5091838;28;20565;-71
2022/01/14 10:27:59;;;;;;;21.40;16.00;;;;;;;;;;5089770;28;20209;-70
2022/01/14 10:30:28;;;;;;;24.17;16.50;;;;;;;;;;5074356;28;20190;-70
2022/01/14 10:32:55;;;;;;;22.30;14.97;;;;;;;;;;5090171;28;20176;-72
2022/01/14 10:35:21;;;;;;;25.10;15.73;;;;;;;;;;5089569;28;20199;-72
2022/01/14 10:37:47;;;;;;;25.03;16.57;;;;;;;;;;5088124;28;20199;-71
2022/01/14 10:40:17;;;;;;;21.37;16.00;;;;;;;;;;5091359;28;20179;-71
2022/01/14 10:42:43;;;;;;;20.57;15.43;;;;;;;;;;5073406;28;20190;-72
2022/01/14 10:45:25;;;;;;;22.03;16.53;;;;;;;;;;5091189;28;20180;-70
2022/01/14 10:47:54;;;;;;;21.03;15.70;;;;;;;;;;5092415;28;20277;-70
2022/01/14 10:50:25;;;;;;;21.07;15.73;;;;;;;;;;5090861;28;20949;-70
2022/01/14 10:52:50;;;;;;;20.00;15.73;;;;;;;;;;5087831;28;20192;-70
2022/01/14 10:55:26;;;;;;;23.07;16.50;;;;;;;;;;5088453;28;20203;-69
2022/01/14 10:57:51;;;;;;;19.63;14.87;;;;;;;;;;5090025;28;20307;-70
2022/01/14 11:00:19;;;;;;;19.30;14.27;;;;;;;;;;5090428;28;20175;-71
2022/01/14 11:02:48;;;;;;;24.67;15.50;;;;;;;;;;5076442;28;20640;-71
2022/01/14 11:05:17;;;;;;;21.60;14.67;;;;;;;;;;5088448;28;20203;-70
2022/01/14 11:07:43;;;;;;;21.00;15.63;;;;;;;;;;5088733;28;20167;-71
2022/01/14 11:10:21;;;;;;;23.30;15.03;;;;;;;;;;5090559;28;20557;-70
2022/01/14 11:12:46;;;;;;;20.53;15.13;;;;;;;;;;5091743;28;20198;-70
2022/01/14 11:15:12;;;;;;;22.27;16.00;;;;;;;;;;5088347;28;20255;-70
2022/01/14 11:17:38;;;;;;;19.60;15.50;;;;;;;;;;5097748;28;20299;-70
2022/01/14 11:20:04;;;;;;;20.87;15.77;;;;;;;;;;5093569;28;20280;-70
2022/01/14 11:25:13;;;;;;;22.80;15.70;;;;;;;;;;5093297;28;20283;-69
2022/01/14 11:27:40;;;;;;;21.93;14.17;;;;;;;;;;5092404;28;20176;-69
2022/01/14 11:30:11;;;;;;;16.30;13.67;;;;;;;;;;5095259;28;20225;-70
2022/01/14 11:32:53;;;;;;;21.50;15.27;;;;;;;;;;5089525;28;20764;-69
2022/01/14 11:35:19;;;;;;;21.63;16.10;;;;;;;;;;5087531;28;20199;-69
2022/01/14 11:37:45;;;;;;;21.60;16.13;;;;;;;;;;5100459;28;20589;-71
2022/01/14 11:40:12;;;;;;;24.73;16.13;;;;;;;;;;5111413;28;20642;-70
2022/01/14 11:42:47;;;;;;;23.03;16.07;;;;;;;;;;5105596;28;20172;-70
2022/01/14 11:45:13;;;;;;;19.57;14.40;;;;;;;;;;5112950;28;20556;-70
2022/01/14 11:47:41;;;;;;;21.70;15.77;;;;;;;;;;5100116;28;20176;-70
2022/01/14 11:50:26;;;;;;;20.43;15.23;;;;;;;;;;5075203;28;20183;-70
2022/01/14 11:52:52;;;;;;;21.90;16.37;;;;;;;;;;5092449;28;20191;-70
2022/01/14 11:55:23;;;;;;;28.17;15.53;;;;;;;;;;5093081;28;20198;-69
2022/01/14 11:57:55;;;;;;;22.93;16.17;;;;;;;;;;5089772;28;20199;-70
2022/01/14 12:00:26;;;;;;;25.73;17.23;;;;;;;;;;5088738;28;20192;-70
2022/01/14 12:02:55;;;;;;;23.77;16.23;;;;;;;;;;5079187;28;20549;-70
2022/01/14 12:05:25;;;;;;;23.20;16.30;;;;;;;;;;5092135;28;20948;-69
2022/01/14 12:08:02;;;;;;;22.40;16.00;;;;;;;;;;5094440;28;20206;-70
2022/01/14 12:10:29;;;;;;;21.27;16.30;;;;;;;;;;5095268;28;20191;-70
2022/01/14 12:13:14;;;;;;;22.30;16.30;;;;;;;;;;5091019;28;20186;-70
2022/01/14 12:15:47;;;;;;;20.50;15.20;;;;;;;;;;5092921;28;20200;-69
2022/01/14 12:18:12;;;;;;;22.40;15.17;;;;;;;;;;5079862;28;20212;-72
2022/01/14 12:20:47;;;;;;;21.20;16.00;;;;;;;;;;5091988;28;20222;-70
2022/01/14 12:23:17;;;;;;;22.10;14.70;;;;;;;;;;5091016;28;21597;-72
2022/01/14 12:25:43;;;;;;;25.97;16.53;;;;;;;;;;5090763;28;20216;-71
2022/01/14 12:28:18;;;;;;;25.03;16.83;;;;;;;;;;5089562;28;21212;-70
2022/01/14 12:30:56;;;;;;;21.80;16.57;;;;;;;;;;5090185;28;20175;-69
2022/01/14 12:33:37;;;;;;;25.70;16.73;;;;;;;;;;5096931;28;20212;-69
2022/01/14 12:36:10;;;;;;;25.93;16.33;;;;;;;;;;5072159;28;20730;-70
2022/01/14 12:38:37;;;;;;;24.10;16.80;;;;;;;;;;5093346;28;20211;-69
2022/01/14 12:41:03;;;;;;;26.13;18.73;;;;;;;;;;5094209;28;20240;-70
2022/01/14 12:43:29;;;;;;;28.30;18.13;;;;;;;;;;5098064;28;20268;-69
2022/01/14 12:46:24;;;;;;;25.00;17.20;;;;;;;;;;5105379;22;20231;-70
2022/01/14 12:48:56;;;;;;;29.03;16.70;;;;;;;;;;5074773;28;20233;-70
2022/01/14 12:51:22;;;;;;;25.10;17.57;;;;;;;;;;5087352;27;21147;-70
2022/01/14 12:53:48;;;;;;;23.10;16.43;;;;;;;;;;5091779;27;20179;-70
2022/01/14 12:56:17;;;;;;;29.50;18.43;;;;;;;;;;5094862;27;20273;-70
2022/01/14 12:58:49;;;;;;;25.17;17.67;;;;;;;;;;5073969;28;20286;-69
2022/01/14 13:01:14;;;;;;;22.10;16.27;;;;;;;;;;5055294;28;21281;-71
2022/01/14 13:03:40;;;;;;;25.47;17.07;;;;;;;;;;5054474;28;20175;-71
2022/01/14 13:06:05;;;;;;;24.27;16.87;;;;;;;;;;5074077;28;20196;-70
2022/01/14 13:08:30;;;;;;;23.80;16.73;;;;;;;;;;5074495;28;20775;-70
2022/01/14 13:11:02;;;;;;;24.60;16.53;;;;;;;;;;5074432;28;20188;-70
2022/01/14 13:13:27;;;;;;;24.07;17.53;;;;;;;;;;5074372;28;20207;-69
2022/01/14 13:15:59;;;;;;;25.37;18.40;;;;;;;;;;5076456;28;20222;-71
2022/01/14 13:18:29;;;;;;;24.20;16.90;;;;;;;;;;5077597;28;20207;-70
2022/01/14 13:20:54;;;;;;;20.20;16.43;;;;;;;;;;5077997;28;20233;-70
2022/01/14 13:23:20;;;;;;;22.63;17.33;;;;;;;;;;5058629;28;20526;-71
2022/01/14 13:25:46;;;;;;;28.33;16.40;;;;;;;;;;5074857;28;20287;-70
2022/01/14 13:28:11;;;;;;;27.90;17.97;;;;;;;;;;5074999;28;20180;-71
2022/01/14 13:30:37;;;;;;;22.43;16.53;;;;;;;;;;5076348;28;20234;-70
2022/01/14 13:33:07;;;;;;;24.00;18.00;;;;;;;;;;5077007;28;20173;-71
2022/01/14 13:35:34;;;;;;;25.83;17.27;;;;;;;;;;5078363;28;20279;-69
2022/01/14 13:38:09;;;;;;;25.67;17.57;;;;;;;;;;5077493;28;20245;-71
2022/01/14 13:40:55;;;;;;;21.93;16.73;;;;;;;;;;5058531;28;20164;-70
2022/01/14 13:43:27;;;;;;;18.70;16.03;;;;;;;;;;5075705;28;20736;-70
2022/01/14 13:46:06;;;;;;;26.53;17.53;;;;;;;;;;5058452;28;20665;-70
2022/01/14 13:48:58;;;;;;;21.90;18.03;;;;;;;;;;5060311;28;20367;-69
2022/01/14 13:51:27;;;;;;;28.90;17.67;;;;;;;;;;5067051;28;20261;-70
2022/01/14 13:53:52;;;;;;;20.73;16.70;;;;;;;;;;5071761;28;20301;-70
2022/01/14 13:56:29;;;;;;;23.70;17.73;;;;;;;;;;5075239;28;20217;-70
2022/01/14 13:58:57;;;;;;;21.70;16.50;;;;;;;;;;5070848;28;20214;-69
2022/01/14 14:01:30;;;;;;;23.53;17.20;;;;;;;;;;5024179;28;20616;-69
2022/01/14 14:04:08;;;;;;;20.87;16.47;;;;;;;;;;5028408;28;20190;-69
2022/01/14 14:06:44;;;;;;;22.60;16.50;;;;;;;;;;5020914;28;20213;-67
2022/01/14 14:16:44;;;;;;;21.73;16.70;;;;;;;;;;5025676;28;20240;-68
2022/01/14 14:19:10;;;;;;;23.30;16.23;;;;;;;;;;5022407;28;20576;-67
2022/01/14 14:21:35;;;;;;;20.90;15.97;;;;;;;;;;5022109;28;21090;-69
2022/01/14 14:24:01;;;;;;;22.03;16.97;;;;;;;;;;5018933;28;21711;-67
2022/01/14 14:26:30;;;;;;;20.43;16.03;;;;;;;;;;5018355;28;20608;-68
2022/01/14 14:28:57;;;;;;;22.63;16.30;;;;;;;;;;5014642;28;20186;-69
2022/01/14 14:31:32;;;;;;;20.43;16.73;;;;;;;;;;5024569;28;20186;-69
2022/01/14 14:33:57;;;;;;;23.43;17.73;;;;;;;;;;5024216;28;20197;-68
2022/01/14 14:36:26;;;;;;;23.33;17.87;;;;;;;;;;5025120;28;20202;-67
2022/01/14 14:38:51;;;;;;;25.53;18.37;;;;;;;;;;5021982;28;20193;-68
2022/01/14 14:41:17;;;;;;;23.93;16.97;;;;;;;;;;5026761;28;20197;-68
2022/01/14 14:43:42;;;;;;;25.43;17.37;;;;;;;;;;5022054;28;20177;-69
2022/01/14 14:46:10;;;;;;;21.90;18.00;;;;;;;;;;5023006;28;21722;-69